Share

Iron Mountain, MI

Iron Mountain, MI (KMIIRONM2) Elev 1155 ft | 45.83 °N, 88.06 °W | Change Station

Current weather conditions updated 4 minutes ago

Clear
Clear
36.9 °F
Feels Like 33 °F
N
4.7
Wind Variable Wind from SSW
Sunrise 5:59 AM
Sunset 7:44 PM
Moon Waning Gibbous

Today is forecast to be nearly the same temperature as yesterday. Light rain tonight.

Pressure 30.41 in
Visibility 10.0 miles
Clouds Clear
Windchill 33 °F
Dew Point 26 °F
Humidity 63%
Rainfall 0.00 in
Snow Depth Not available.
UV 3 out of 16
Pollen 9.50 out of 12
Air Quality Not available.
Flu Activity Sporadic
METAR KIMT 191354Z AUTO 14011KT 10SM CLR 01/M04 A3036 RMK AO2 SLP297 T00111044

More Conditions Fewer Conditions

Pressure 30.41 in
Visibility 10.0 miles
Clouds Clear
Windchill 33 °F
Dew Point 26 °F
Humidity 63%
Rainfall 0.00 in
Snow Depth Not available.
UV 3 out of 16
Pollen 9.50 out of 12
Air Quality Not available.
Flu Activity Sporadic
METAR KIMT 191354Z AUTO 14011KT 10SM CLR 01/M04 A3036 RMK AO2 SLP297 T00111044

More Conditions Fewer Conditions

10-Day Weather Forecast

Almanac

Astronomy

Apr. 19, 2014 Rise Set
Actual Time 5:59 AM CDT 7:44 PM CDT
Civil Twilight 5:27 AM CDT 8:15 PM CDT
Nautical Twilight 4:49 AM CDT 8:54 PM CDT
Astronomical Twilight 4:07 AM CDT 9:36 PM CDT
Moon No Moon Rise 9:10 AM CDT
Length of Visible Light 14h 48m
Length of Day
13h 45m
Tomorrow will be 3m 2s longer.
Waning Gibbous, 79% of the Moon is Illuminated
Today
Waning Gibbous
Apr 22
Last Quarter
Apr 29
New
May 6
First Quarter
May 14
Full

Today's Extremes

State Highs State Lows

Community

  • A Glorious Morning
    A Glorious Morning
  • Bleeding Hearts
    Bleeding Hearts
  • Sunset Silhouettes
    Sunset Silhouettes
  • FL sunset Perico Isle
    FL sunset Perico Isle
  • La Conner
    La Conner

WunderPhotos

Upload Photos

1,702,742 photos uploaded!

Nearby

Snow Depth

Station Depth Elevation
No new snow has been reported.

Coastal Water Temperatures

Place Temperature
No Stations Reporting

Earthquake Activity

City Distance Mag. Time & Date
No recent earthquake activity has been reported nearby.
Minimum magnitude displayed is 2.5.

Nearby Weather Stations

Station Location Temp. Windchill Dew Point Humidity Wind Precip. Elev Updated Type
Iron Mountain, MI, Iron Mountain, MI 36.9 °F 33 °F 26 °F 63% SSW  at  4.7 mph - / hr 1155 ft 9:16 AM CDT Normal
Spread Eagle Skies, Florence, WI 37.9 °F 38 °F 25 °F 60% ESE  at  1.1 mph 0.00 in / hr 1224 ft 9:20 AM CDT Rapid Fire
Norway, MI 35.4 °F 31 °F 29 °F 77% SE  at  5.0 mph 0.00 in / hr 1010 ft 9:12 AM CDT Normal
Downtown, Norway, MI 37.1 °F 29 °F 29 °F 73% SSE  at  13.8 mph 0.00 in / hr 942 ft 9:20 AM CDT Rapid Fire
RAWS RANDVILLE MI, Sagola, MI 33 °F 28 °F 25 °F 73% SE  at  5 mph 0.00 in / hr 1254 ft 8:13 AM CDT MADIS

Show More Stations Show Fewer Stations

What do you think?

We're not finished. Please let us know what you like, what you don't like, and what you are still missing.